Edgewater, OH

7:28 PM EST on February 06, 2016 (GMT -0500)
Westlake Ohio, 1 mile south of Lake Erie | | Change Station
CLOSE
Current Station
Personal Weather Station
Location: Westlake, OH
Elevation: 659 ft
Nearby Weather Stations

Elev 659 ft 41.47 °N, 81.92 °W | Updated 4 minutes ago

Clear
Clear
34.3 °F
Feels Like 34 °F
N
0.0
Wind Variable Wind from South
Gusts 1.0 mph

Today
High -- | Low -- °F
--% Chance of Precip.
Yesterday
High -- | Low -- °F
Precip. -- in
Pressure 30.26 in
Visibility 10.0 miles
Clouds Clear
Windchill 34 °F
Dew Point 25 °F
Humidity 68%
Rainfall 0.00 in
Snow Depth Not available.
7:33 AM 5:48 PM
Waning Crescent, 3% visible
METAR KCLE 062351Z 22005KT 10SM CLR 01/M07 A3023 RMK AO2 SLP246 T00111067 10044 20011 50002
Pressure 30.26 in
Visibility 10.0 miles
Clouds Clear
Windchill 34 °F
Dew Point 25 °F
Humidity 68%
Rainfall 0.00 in
Snow Depth Not available.
7:33 AM 5:48 PM
Waning Crescent, 3% visible
METAR KCLE 062351Z 22005KT 10SM CLR 01/M07 A3023 RMK AO2 SLP246 T00111067 10044 20011 50002

10-Day Weather Forecast

Almanac

Astronomy

Feb. 06, 2016 Rise Set
Actual Time
Civil Twilight
Nautical Twilight
Astronomical Twilight
Moon
Length of Visible Light
Length of Day
Tomorrow will be .
, % of the Moon is Illuminated

Today's Extremes

State Highs State Lows

Community

WunderPhotos

Upload Photos

1,891,106 photos uploaded!

WunderBlog® & News

Nearby

Air Quality

  Air Quality AQ Index Pollutant
Not available.

Snow Depth

Station Depth Elevation

Earthquake Activity

City Distance Mag. Time & Date
Minimum magnitude displayed is 2.5.

Coastal Water Temperatures

Place Temperature

Stations

Nearby Weather Stations

Station Location Temp. Windchill Dew Point Humidity Wind Precip. Elev Updated Type
                   

Watches & Warnings

There are currently no watches in effect.